Time;durP1;ratioP1;P1;durP2;ratioP2;P2;SDS_P1;SDS_P2;PMS_P1;PMS_P2;Temp;Humidity;BMP_temperature;BMP_pressure;BME280_temperature;BME280_humidity;BME280_pressure;Samples;Min_cycle;Max_cycle;Signal;HPM_P1;HPM_P2
2022/11/07 00:02:26;;;;;;;;;;;;;;;7.21;86.35;97660.15;107624;1273;72105;-69
2022/11/07 00:04:56;;;;;;;;;;;;;;;7.12;86.30;97662.51;107634;1269;69289;-69
2022/11/07 00:07:26;;;;;;;;;;;;;;;7.05;85.90;97665.34;107633;1270;69332;-69
2022/11/07 00:09:54;;;;;;;;;;;;;;;6.99;85.69;97667.76;107632;1273;60543;-69
2022/11/07 00:12:24;;;;;;;;;;;;;;;6.93;88.75;97667.58;107681;1270;60511;-70
2022/11/07 00:14:53;;;;;;;;;;;;;;;6.83;89.20;97668.98;107681;1262;71208;-69
2022/11/07 00:17:22;;;;;;;;;;;;;;;6.71;88.82;97668.58;107641;1270;69290;-69
2022/11/07 00:19:51;;;;;;;;;;;;;;;6.58;88.87;97667.33;107605;1268;69103;-70
2022/11/07 00:22:20;;;;;;;;;;;;;;;6.48;88.70;97665.27;107654;1270;60497;-69
2022/11/07 00:24:50;;;;;;;;;;;;;;;6.42;88.62;97662.48;107583;1268;60577;-69
2022/11/07 00:27:20;;;;;;;;;;;;;;;6.36;88.51;97664.15;107668;1270;72086;-69
2022/11/07 00:29:49;;;;;;;;;;;;;;;6.32;90.25;97658.84;107618;1271;69262;-69
2022/11/07 00:32:18;;;;;;;;;;;;;;;6.28;89.74;97665.47;107632;1270;69798;-69
2022/11/07 00:34:47;;;;;;;;;;;;;;;6.23;86.84;97659.16;107607;1272;60493;-69
2022/11/07 00:37:16;;;;;;;;;;;;;;;6.21;85.71;97661.98;107611;1266;60499;-68
2022/11/07 00:39:46;;;;;;;;;;;;;;;6.22;86.44;97661.77;107672;1270;72274;-70
2022/11/07 00:42:15;;;;;;;;;;;;;;;6.25;87.65;97656.97;107640;1270;70010;-69
2022/11/07 00:44:44;;;;;;;;;;;;;;;6.23;88.12;97657.04;107605;1269;68288;-69
2022/11/07 00:47:13;;;;;;;;;;;;;;;6.19;90.08;97657.98;107631;1270;60580;-69
2022/11/07 00:49:42;;;;;;;;;;;;;;;6.14;89.78;97663.59;107657;1270;60565;-69
2022/11/07 00:52:11;;;;;;;;;;;;;;;6.11;88.54;97664.61;107645;1271;72225;-70
2022/11/07 00:54:41;;;;;;;;;;;;;;;6.09;90.39;97666.94;107623;1271;69716;-69
2022/11/07 00:57:10;;;;;;;;;;;;;;;6.08;88.39;97666.13;107639;1271;68489;-69
2022/11/07 00:59:40;;;;;;;;;;;;;;;6.08;88.16;97663.88;107614;1269;60965;-70
2022/11/07 01:02:09;;;;;;;;;;;;;;;6.06;89.50;97666.92;107683;1270;60530;-71
2022/11/07 01:07:28;;;;;;;;;;;;;;;6.00;90.39;97664.11;107644;1270;69099;-71
2022/11/07 01:09:58;;;;;;;;;;;;;;;5.95;89.89;97666.79;107584;1270;69342;-71
2022/11/07 01:12:27;;;;;;;;;;;;;;;5.91;90.22;97667.85;107685;1272;60582;-70
2022/11/07 01:14:57;;;;;;;;;;;;;;;5.84;90.15;97661.75;107625;1271;60668;-70
2022/11/07 01:17:28;;;;;;;;;;;;;;;5.81;88.68;97662.61;107627;1271;72191;-70
2022/11/07 01:19:57;;;;;;;;;;;;;;;5.77;87.89;97660.74;107621;1271;69114;-70
2022/11/07 01:22:28;;;;;;;;;;;;;;;5.74;90.56;97663.63;107640;1269;68495;-70
2022/11/07 01:24:58;;;;;;;;;;;;;;;5.71;90.98;97663.48;107624;1266;60602;-70
2022/11/07 01:27:28;;;;;;;;;;;;;;;5.68;93.59;97661.52;107692;1270;60556;-70
2022/11/07 01:29:59;;;;;;;;;;;;;;;5.66;92.32;97662.85;107660;1269;71377;-70
2022/11/07 01:32:28;;;;;;;;;;;;;;;5.62;92.07;97661.64;107657;1270;69438;-70
2022/11/07 01:34:59;;;;;;;;;;;;;;;5.58;93.45;97662.01;107591;1269;69308;-70
2022/11/07 01:37:29;;;;;;;;;;;;;;;5.53;93.78;97659.47;107606;1270;60549;-70
2022/11/07 01:39:58;;;;;;;;;;;;;;;5.50;93.95;97660.14;107620;1271;60540;-70
2022/11/07 01:42:28;;;;;;;;;;;;;;;5.49;94.63;97656.55;107595;1269;72236;-70
2022/11/07 01:44:58;;;;;;;;;;;;;;;5.47;94.88;97659.59;107592;1267;68232;-70
2022/11/07 01:47:32;;;;;;;;;;;;;;;5.45;93.75;97657.77;107601;1271;69154;-70
2022/11/07 01:50:04;;;;;;;;;;;;;;;5.44;95.32;97659.92;107601;1268;60568;-70
2022/11/07 01:52:37;;;;;;;;;;;;;;;5.44;95.48;97659.24;107588;1270;60512;-70
2022/11/07 01:55:16;;;;;;;;;;;;;;;5.41;94.89;97655.38;107690;1270;72208;-70
2022/11/07 01:57:48;;;;;;;;;;;;;;;5.37;93.84;97653.88;107637;1271;68551;-70
2022/11/07 02:00:20;;;;;;;;;;;;;;;5.34;93.83;97653.99;107611;1265;68332;-70
2022/11/07 02:02:51;;;;;;;;;;;;;;;5.30;93.64;97658.51;107619;1270;60590;-71
2022/11/07 02:05:28;;;;;;;;;;;;;;;5.27;93.51;97658.48;107621;1270;60510;-71
2022/11/07 02:07:59;;;;;;;;;;;;;;;5.23;90.65;97658.86;107634;1266;72226;-71
2022/11/07 02:10:29;;;;;;;;;;;;;;;5.23;94.79;97662.15;107655;1270;68232;-71
2022/11/07 02:12:59;;;;;;;;;;;;;;;5.17;94.31;97658.80;107396;1271;69275;-71
2022/11/07 02:15:28;;;;;;;;;;;;;;;5.14;94.04;97664.48;107739;1270;60531;-71
2022/11/07 02:17:58;;;;;;;;;;;;;;;5.09;95.54;97659.50;107761;1270;60529;-71
2022/11/07 02:20:27;;;;;;;;;;;;;;;5.05;94.98;97662.98;107654;1270;71698;-71
2022/11/07 02:22:58;;;;;;;;;;;;;;;5.01;92.25;97660.42;107623;1266;68555;-71
2022/11/07 02:25:28;;;;;;;;;;;;;;;5.00;90.66;97659.77;107626;1270;68381;-71
2022/11/07 02:28:01;;;;;;;;;;;;;;;5.01;89.73;97659.90;107631;1265;60533;-71
2022/11/07 02:30:33;;;;;;;;;;;;;;;5.01;89.90;97661.98;107643;1271;60579;-71
2022/11/07 02:33:15;;;;;;;;;;;;;;;4.99;92.54;97660.31;107627;1270;72418;-71
2022/11/07 02:35:47;;;;;;;;;;;;;;;4.94;93.44;97658.45;107763;1270;69019;-71
2022/11/07 02:38:19;;;;;;;;;;;;;;;4.88;93.87;97656.19;107763;1270;69556;-70
2022/11/07 02:40:50;;;;;;;;;;;;;;;4.80;96.24;97659.98;107629;1267;60510;-71
2022/11/07 02:43:22;;;;;;;;;;;;;;;4.72;95.75;97658.48;107800;1270;60975;-71
2022/11/07 02:45:53;;;;;;;;;;;;;;;4.65;94.53;97658.11;107638;1266;70631;-71
2022/11/07 02:48:40;;;;;;;;;;;;;;;4.61;95.63;97659.45;107626;1272;68287;-71
2022/11/07 02:51:11;;;;;;;;;;;;;;;4.59;96.52;97658.02;107635;1270;68613;-71
2022/11/07 02:53:42;;;;;;;;;;;;;;;4.58;95.20;97661.14;107608;1270;60533;-71
2022/11/07 02:56:13;;;;;;;;;;;;;;;4.58;95.17;97659.77;107654;1270;60576;-71
2022/11/07 02:58:44;;;;;;;;;;;;;;;4.58;95.19;97662.55;107636;1266;72104;-71
2022/11/07 03:01:14;;;;;;;;;;;;;;;4.55;95.33;97662.48;107759;1274;68469;-71
2022/11/07 03:03:45;;;;;;;;;;;;;;;4.54;95.09;97665.85;107531;1267;69269;-71
2022/11/07 03:06:17;;;;;;;;;;;;;;;4.53;94.33;97669.83;107590;1274;60528;-69
2022/11/07 03:08:48;;;;;;;;;;;;;;;4.51;94.16;97667.52;107627;1270;60585;-69
2022/11/07 03:11:19;;;;;;;;;;;;;;;4.46;93.68;97673.77;107663;1270;72034;-69
2022/11/07 03:13:49;;;;;;;;;;;;;;;4.42;95.56;97679.32;107632;1270;69172;-69
2022/11/07 03:16:19;;;;;;;;;;;;;;;4.37;97.38;97679.02;107623;1275;69371;-69
2022/11/07 03:18:49;;;;;;;;;;;;;;;4.31;96.95;97681.30;107602;1272;60590;-69
2022/11/07 03:21:19;;;;;;;;;;;;;;;4.28;97.10;97682.49;107671;1270;60466;-70
2022/11/07 03:23:50;;;;;;;;;;;;;;;4.25;97.17;97677.09;107664;1266;72856;-70
2022/11/07 03:26:21;;;;;;;;;;;;;;;4.24;97.38;97683.34;107652;1270;69198;-69
2022/11/07 03:28:50;;;;;;;;;;;;;;;4.22;98.06;97681.38;107636;1269;68351;-70
2022/11/07 03:31:21;;;;;;;;;;;;;;;4.20;98.29;97683.86;107617;1270;60546;-69
2022/11/07 03:33:50;;;;;;;;;;;;;;;4.19;98.38;97689.05;107654;1267;60544;-70
2022/11/07 03:36:20;;;;;;;;;;;;;;;4.19;98.63;97684.59;107583;1270;71387;-69
2022/11/07 03:38:49;;;;;;;;;;;;;;;4.20;97.95;97685.96;107588;1267;69016;-70
2022/11/07 03:41:19;;;;;;;;;;;;;;;4.23;97.22;97683.26;107584;1270;68471;-70
2022/11/07 03:43:49;;;;;;;;;;;;;;;4.25;94.57;97687.45;107604;1265;60510;-70
2022/11/07 03:46:18;;;;;;;;;;;;;;;4.27;94.17;97687.71;107647;1270;60485;-70
2022/11/07 03:48:47;;;;;;;;;;;;;;;4.30;92.37;97691.91;107629;1270;72720;-69
2022/11/07 03:51:17;;;;;;;;;;;;;;;4.36;91.18;97690.95;107637;1270;68364;-70
2022/11/07 03:53:47;;;;;;;;;;;;;;;4.44;91.09;97686.13;107602;1270;68306;-69
2022/11/07 03:56:17;;;;;;;;;;;;;;;4.49;92.32;97688.81;107637;1270;60983;-70
2022/11/07 03:58:46;;;;;;;;;;;;;;;4.46;94.19;97688.63;107672;1270;60482;-69
2022/11/07 04:01:15;;;;;;;;;;;;;;;4.38;95.42;97691.21;107588;1269;72190;-70
2022/11/07 04:03:46;;;;;;;;;;;;;;;4.29;95.74;97698.00;107609;1270;69510;-70
2022/11/07 04:06:15;;;;;;;;;;;;;;;4.23;96.72;97702.39;107578;1270;68159;-71
2022/11/07 04:08:45;;;;;;;;;;;;;;;4.18;97.92;97700.35;107567;1268;60594;-71
2022/11/07 04:17:17;;;;;;;;;;;;;;;4.15;97.59;97702.02;107648;1270;60574;-70
2022/11/07 04:19:40;;;;;;;;;;;;;;;4.04;97.85;97701.09;107575;1274;69102;-70
2022/11/07 04:22:10;;;;;;;;;;;;;;;4.04;98.11;97703.02;107562;1270;60573;-70
2022/11/07 04:24:40;;;;;;;;;;;;;;;4.02;97.84;97704.65;107684;1270;60522;-70
2022/11/07 04:30:17;;;;;;;;;;;;;;;3.99;98.47;97708.39;107584;1267;69234;-70
2022/11/07 04:32:48;;;;;;;;;;;;;;;3.97;98.44;97708.44;107628;1271;67520;-71
2022/11/07 04:35:18;;;;;;;;;;;;;;;3.96;98.27;97708.50;107654;1264;60589;-70
2022/11/07 04:37:47;;;;;;;;;;;;;;;3.96;97.93;97711.81;107639;1270;60504;-70
2022/11/07 04:40:17;;;;;;;;;;;;;;;3.97;97.27;97709.51;107621;1266;71112;-71
2022/11/07 04:42:48;;;;;;;;;;;;;;;4.02;97.30;97707.40;107677;1270;68393;-71
2022/11/07 04:45:17;;;;;;;;;;;;;;;4.02;97.11;97704.13;107653;1270;69877;-72
2022/11/07 04:47:46;;;;;;;;;;;;;;;4.04;98.57;97703.52;107621;1270;60554;-72
2022/11/07 04:50:16;;;;;;;;;;;;;;;4.07;99.74;97706.13;107674;1270;60634;-71
2022/11/07 04:52:46;;;;;;;;;;;;;;;4.05;98.63;97704.67;107608;1270;71429;-71
2022/11/07 04:55:20;;;;;;;;;;;;;;;4.03;98.27;97711.86;107632;1266;69465;-71
2022/11/07 04:57:49;;;;;;;;;;;;;;;4.04;98.68;97710.39;107624;1270;69449;-70
2022/11/07 05:00:19;;;;;;;;;;;;;;;4.07;97.12;97710.13;107600;1270;60518;-71
2022/11/07 05:02:48;;;;;;;;;;;;;;;4.12;95.06;97712.16;107795;1270;60962;-70
2022/11/07 05:05:17;;;;;;;;;;;;;;;4.17;94.50;97711.61;107661;1270;72698;-70
2022/11/07 05:07:46;;;;;;;;;;;;;;;4.18;96.52;97711.73;107641;1270;68609;-71
2022/11/07 05:10:16;;;;;;;;;;;;;;;4.15;97.87;97711.20;107573;1266;68702;-70
2022/11/07 05:12:46;;;;;;;;;;;;;;;4.10;98.10;97717.25;107538;1270;60551;-70
2022/11/07 05:15:15;;;;;;;;;;;;;;;4.05;98.06;97717.63;107558;1270;60607;-70
2022/11/07 05:17:45;;;;;;;;;;;;;;;4.04;99.09;97717.52;107612;1270;71619;-70
2022/11/07 05:20:28;;;;;;;;;;;;;;;4.03;100.00;97718.93;107579;1266;69181;-70
2022/11/07 05:25:48;;;;;;;;;;;;;;;4.08;100.00;97715.63;107603;1268;60979;-71
2022/11/07 05:28:24;;;;;;;;;;;;;;;4.12;100.00;97719.58;107598;1270;60598;-69
2022/11/07 05:31:03;;;;;;;;;;;;;;;4.18;100.00;97722.09;107586;1266;71678;-72
2022/11/07 05:33:32;;;;;;;;;;;;;;;4.24;100.00;97723.91;107626;1266;69702;-70
2022/11/07 05:36:12;;;;;;;;;;;;;;;4.29;100.00;97724.02;107679;1267;70270;-70
2022/11/07 05:38:42;;;;;;;;;;;;;;;4.35;100.00;97723.11;107626;1269;60513;-70
2022/11/07 05:41:11;;;;;;;;;;;;;;;4.41;100.00;97723.18;107615;1270;60974;-70
2022/11/07 05:43:40;;;;;;;;;;;;;;;4.49;100.00;97723.35;107598;1270;71781;-70
2022/11/07 05:46:10;;;;;;;;;;;;;;;4.59;100.00;97720.48;107684;1266;69638;-70
2022/11/07 05:48:38;;;;;;;;;;;;;;;4.69;100.00;97721.96;107623;1269;68321;-70
2022/11/07 05:51:07;;;;;;;;;;;;;;;4.80;100.00;97723.04;107655;1270;60542;-70
2022/11/07 05:53:36;;;;;;;;;;;;;;;4.91;100.00;97725.80;107611;1267;60580;-71
2022/11/07 05:56:05;;;;;;;;;;;;;;;5.03;100.00;97731.50;107571;1270;72290;-71
2022/11/07 05:58:34;;;;;;;;;;;;;;;5.17;100.00;97732.07;107599;1269;69169;-72
2022/11/07 06:01:04;;;;;;;;;;;;;;;5.28;100.00;97736.55;107612;1270;69150;-72
2022/11/07 06:03:34;;;;;;;;;;;;;;;5.37;99.64;97738.36;107630;1266;60573;-72
2022/11/07 06:06:04;;;;;;;;;;;;;;;5.48;98.90;97740.98;107642;1270;60469;-73
2022/11/07 06:08:33;;;;;;;;;;;;;;;5.61;98.70;97744.16;107557;1267;73444;-66
2022/11/07 06:11:05;;;;;;;;;;;;;;;5.76;97.59;97748.29;107593;1266;69888;-72
2022/11/07 06:13:33;;;;;;;;;;;;;;;5.88;97.38;97754.14;107731;1270;69296;-72
2022/11/07 06:16:02;;;;;;;;;;;;;;;5.97;96.81;97759.41;107526;1267;60971;-69
2022/11/07 06:18:31;;;;;;;;;;;;;;;6.09;96.64;97766.44;107612;1270;60572;-68
2022/11/07 06:21:06;;;;;;;;;;;;;;;6.18;96.81;97768.44;107588;1270;73002;-66
2022/11/07 06:23:35;;;;;;;;;;;;;;;6.32;96.60;97771.18;107601;1270;68839;-65
2022/11/07 06:26:04;;;;;;;;;;;;;;;6.46;96.94;97772.72;107597;1267;69288;-65
2022/11/07 06:28:34;;;;;;;;;;;;;;;6.63;95.99;97773.09;107525;1270;60520;-66
2022/11/07 06:31:05;;;;;;;;;;;;;;;6.93;96.30;97773.44;107616;1266;60525;-66
2022/11/07 06:33:34;;;;;;;;;;;;;;;7.34;96.59;97777.17;107573;1264;72133;-66
2022/11/07 06:36:04;;;;;;;;;;;;;;;7.83;94.82;97781.41;107538;1266;68703;-67
2022/11/07 06:38:33;;;;;;;;;;;;;;;8.36;92.66;97781.20;107589;1270;68258;-67
2022/11/07 06:41:05;;;;;;;;;;;;;;;8.83;88.86;97781.02;107592;1266;60578;-67
2022/11/07 06:43:34;;;;;;;;;;;;;;;9.23;84.08;97779.30;107588;1270;60501;-66
2022/11/07 06:46:05;;;;;;;;;;;;;;;9.68;81.22;97782.10;107664;1266;72769;-67
2022/11/07 06:48:33;;;;;;;;;;;;;;;10.10;79.08;97783.52;107566;1270;69197;-67
2022/11/07 06:51:03;;;;;;;;;;;;;;;10.52;81.71;97779.76;107589;1271;70172;-65
2022/11/07 06:53:32;;;;;;;;;;;;;;;10.92;81.82;97778.30;107588;1270;60600;-65
2022/11/07 06:56:01;;;;;;;;;;;;;;;11.18;75.71;97775.25;107550;1270;60830;-67
2022/11/07 06:58:30;;;;;;;;;;;;;;;11.37;73.54;97772.73;107660;1270;71448;-68
2022/11/07 07:01:03;;;;;;;;;;;;;;;11.41;73.75;97776.46;107542;1270;68692;-66
2022/11/07 07:03:32;;;;;;;;;;;;;;;11.34;74.00;97780.27;107589;1270;68414;-66
2022/11/07 07:06:04;;;;;;;;;;;;;;;11.32;74.85;97778.83;107633;1267;60556;-66
2022/11/07 07:08:33;;;;;;;;;;;;;;;11.34;75.10;97777.64;107746;1270;60550;-65
2022/11/07 07:11:03;;;;;;;;;;;;;;;11.41;74.81;97777.17;107721;1265;72293;-66
2022/11/07 07:13:32;;;;;;;;;;;;;;;11.81;73.97;97777.09;107579;1270;69158;-65
2022/11/07 07:16:01;;;;;;;;;;;;;;;12.26;73.08;97777.19;107554;1270;69938;-66
2022/11/07 07:18:30;;;;;;;;;;;;;;;12.42;71.41;97775.63;107627;1271;60583;-68
2022/11/07 07:21:03;;;;;;;;;;;;;;;12.63;71.45;97771.05;107593;1270;60564;-66
2022/11/07 07:23:33;;;;;;;;;;;;;;;12.96;69.83;97768.27;107565;1269;71884;-65
2022/11/07 07:26:03;;;;;;;;;;;;;;;12.87;69.63;97771.04;107658;1270;69204;-68
2022/11/07 07:28:32;;;;;;;;;;;;;;;12.90;69.90;97770.83;107236;1270;555074;-66
2022/11/07 07:31:09;;;;;;;;;;;;;;;13.17;69.88;97767.84;107542;1270;60572;-66
2022/11/07 07:33:38;;;;;;;;;;;;;;;13.36;69.27;97762.73;107534;1266;60515;-65
2022/11/07 07:36:08;;;;;;;;;;;;;;;13.53;68.30;97761.92;107568;1270;72167;-65
2022/11/07 07:38:40;;;;;;;;;;;;;;;13.74;68.59;97763.73;107576;1271;69139;-67
2022/11/07 07:41:08;;;;;;;;;;;;;;;13.94;67.45;97761.21;107526;1266;69097;-68
2022/11/07 07:43:37;;;;;;;;;;;;;;;14.18;66.03;97762.11;107610;1270;60525;-68
2022/11/07 07:46:07;;;;;;;;;;;;;;;14.35;63.13;97761.75;107603;1270;60480;-68
2022/11/07 07:48:36;;;;;;;;;;;;;;;14.25;63.13;97761.29;107608;1266;72208;-68
2022/11/07 07:51:04;;;;;;;;;;;;;;;14.28;63.44;97760.92;107600;1268;68745;-66
2022/11/07 07:53:33;;;;;;;;;;;;;;;14.47;62.41;97756.70;107559;1270;68417;-67
2022/11/07 07:56:05;;;;;;;;;;;;;;;14.77;61.39;97756.30;107607;1270;60571;-67
2022/11/07 07:58:33;;;;;;;;;;;;;;;15.45;59.85;97753.59;107656;1267;60526;-66
2022/11/07 08:01:08;;;;;;;;;;;;;;;16.18;56.87;97753.53;107665;1270;72786;-66
2022/11/07 08:03:38;;;;;;;;;;;;;;;16.92;55.01;97746.80;107650;1270;68234;-66
2022/11/07 08:06:28;;;;;;;;;;;;;;;17.51;53.32;97748.73;107611;1267;69679;-67
2022/11/07 08:08:57;;;;;;;;;;;;;;;17.79;53.12;97749.40;107637;1267;60503;-67
2022/11/07 08:11:25;;;;;;;;;;;;;;;17.89;51.56;97747.19;107623;1269;60574;-68
2022/11/07 08:13:54;;;;;;;;;;;;;;;18.13;51.33;97746.10;107626;1270;72604;-65
2022/11/07 08:16:28;;;;;;;;;;;;;;;18.35;50.92;97744.77;107598;1270;69077;-67
2022/11/07 08:18:57;;;;;;;;;;;;;;;18.66;49.73;97743.84;107562;1269;69288;-67
2022/11/07 08:21:25;;;;;;;;;;;;;;;18.37;50.16;97740.92;107604;1266;60939;-70
2022/11/07 08:23:55;;;;;;;;;;;;;;;18.51;49.72;97739.99;107563;1266;60934;-71
2022/11/07 08:26:24;;;;;;;;;;;;;;;18.29;49.93;97742.05;107653;1268;72013;-74
2022/11/07 08:28:53;;;;;;;;;;;;;;;18.37;50.32;97743.05;107606;1266;69075;-74
2022/11/07 08:31:22;;;;;;;;;;;;;;;18.61;49.95;97740.59;107579;1265;69154;-75
2022/11/07 08:33:51;;;;;;;;;;;;;;;19.43;50.32;97743.59;107535;1267;60661;-74
2022/11/07 08:36:20;;;;;;;;;;;;;;;19.85;48.08;97741.73;107617;1265;60535;-73
2022/11/07 08:38:49;;;;;;;;;;;;;;;20.29;48.33;97740.47;107560;1270;72182;-74
2022/11/07 08:41:18;;;;;;;;;;;;;;;20.23;47.75;97740.99;107530;1270;69883;-73
2022/11/07 08:43:49;;;;;;;;;;;;;;;20.62;46.11;97737.15;107619;1270;69841;-73
2022/11/07 08:46:18;;;;;;;;;;;;;;;20.88;44.70;97736.96;107619;1265;60529;-74
2022/11/07 08:48:49;;;;;;;;;;;;;;;21.03;44.54;97739.39;107537;1267;60512;-74
2022/11/07 08:51:18;;;;;;;;;;;;;;;21.83;42.89;97735.60;107510;1270;71207;-74
2022/11/07 08:53:46;;;;;;;;;;;;;;;21.98;42.26;97739.16;107601;1268;68224;-73
2022/11/07 08:56:15;;;;;;;;;;;;;;;21.54;42.01;97737.45;107642;1266;69089;-72
2022/11/07 08:58:44;;;;;;;;;;;;;;;20.46;43.58;97741.16;107622;1266;60542;-73
2022/11/07 09:01:13;;;;;;;;;;;;;;;21.06;43.40;97737.96;107644;1270;60518;-74
2022/11/07 09:03:42;;;;;;;;;;;;;;;21.26;42.48;97737.05;107569;1270;73166;-74
2022/11/07 09:06:20;;;;;;;;;;;;;;;20.59;43.64;97739.95;107645;1270;68214;-73
2022/11/07 09:08:49;;;;;;;;;;;;;;;20.87;43.64;97741.34;107641;1265;68748;-74
2022/11/07 09:11:17;;;;;;;;;;;;;;;20.65;42.70;97739.86;107596;1267;60588;-74
2022/11/07 09:13:47;;;;;;;;;;;;;;;20.35;43.79;97744.83;107567;1269;60536;-73
2022/11/07 09:16:16;;;;;;;;;;;;;;;20.72;43.02;97742.61;107686;1269;72002;-74
2022/11/07 09:18:45;;;;;;;;;;;;;;;20.45;42.27;97745.20;107568;1266;69772;-74
2022/11/07 09:21:15;;;;;;;;;;;;;;;19.74;44.07;97744.75;107585;1270;69948;-73
2022/11/07 09:23:50;;;;;;;;;;;;;;;20.03;43.95;97743.69;107616;1270;60587;-73
2022/11/07 09:26:19;;;;;;;;;;;;;;;19.90;44.21;97736.84;107566;1265;60574;-73
2022/11/07 09:28:47;;;;;;;;;;;;;;;20.43;43.88;97736.75;107586;1269;72211;-73
2022/11/07 09:31:20;;;;;;;;;;;;;;;20.52;42.83;97733.66;107562;1266;69715;-73
2022/11/07 09:33:49;;;;;;;;;;;;;;;20.71;42.25;97730.88;107576;1267;68479;-73
2022/11/07 09:36:17;;;;;;;;;;;;;;;21.20;41.23;97729.36;107639;1269;60569;-73
2022/11/07 09:38:46;;;;;;;;;;;;;;;20.67;42.03;97722.98;107632;1266;60469;-73
2022/11/07 09:41:24;;;;;;;;;;;;;;;21.17;41.43;97722.29;107578;1266;72232;-73
2022/11/07 09:44:11;;;;;;;;;;;;;;;21.99;41.05;97721.54;107606;1267;68569;-75
2022/11/07 09:46:48;;;;;;;;;;;;;;;22.53;39.26;97719.27;107601;1269;69287;-75
2022/11/07 09:49:20;;;;;;;;;;;;;;;23.27;38.44;97719.74;107625;1270;60559;-75
2022/11/07 09:51:53;;;;;;;;;;;;;;;24.08;37.23;97721.04;107648;1268;60500;-73
2022/11/07 09:54:24;;;;;;;;;;;;;;;24.25;36.24;97719.00;107651;1266;72331;-73
2022/11/07 09:56:55;;;;;;;;;;;;;;;23.85;35.99;97716.65;107609;1269;69236;-74
2022/11/07 09:59:26;;;;;;;;;;;;;;;23.23;37.35;97714.60;107628;1270;68459;-73
2022/11/07 10:01:56;;;;;;;;;;;;;;;23.30;36.68;97717.15;107673;1270;60569;-73
2022/11/07 10:04:25;;;;;;;;;;;;;;;23.19;37.45;97717.22;107569;1270;60597;-72
2022/11/07 10:06:58;;;;;;;;;;;;;;;23.58;36.36;97715.20;107596;1266;72873;-72
2022/11/07 10:09:40;;;;;;;;;;;;;;;23.69;36.14;97714.91;107653;1266;69228;-71
2022/11/07 10:12:12;;;;;;;;;;;;;;;23.45;37.15;97707.45;107572;1269;69240;-75
2022/11/07 10:14:44;;;;;;;;;;;;;;;24.36;36.03;97709.89;107575;1270;60575;-74
2022/11/07 10:17:31;;;;;;;;;;;;;;;25.44;34.99;97699.75;107704;1270;60535;-74
2022/11/07 10:20:03;;;;;;;;;;;;;;;26.15;32.95;97696.44;107681;1265;72299;-75
2022/11/07 10:22:31;;;;;;;;;;;;;;;25.18;33.00;97697.99;107616;1266;67250;-74
2022/11/07 10:25:20;;;;;;;;;;;;;;;24.23;34.83;97692.92;107543;1270;68739;-74
2022/11/07 10:27:52;;;;;;;;;;;;;;;24.11;35.21;97689.58;107529;1270;60424;-73
2022/11/07 10:30:21;;;;;;;;;;;;;;;24.50;34.66;97683.33;107585;1270;60521;-75
2022/11/07 10:32:53;;;;;;;;;;;;;;;24.49;34.60;97682.60;107625;1270;72171;-74
2022/11/07 10:35:25;;;;;;;;;;;;;;;24.69;33.76;97676.83;107610;1269;69833;-74
2022/11/07 10:37:54;;;;;;;;;;;;;;;24.53;34.29;97673.92;107535;1269;69171;-73
2022/11/07 10:40:27;;;;;;;;;;;;;;;25.07;33.76;97671.52;107610;1270;60563;-73
2022/11/07 10:42:56;;;;;;;;;;;;;;;25.94;33.29;97672.94;107644;1270;60535;-72
2022/11/07 10:45:26;;;;;;;;;;;;;;;26.53;32.12;97668.45;107580;1270;71945;-74
2022/11/07 10:48:03;;;;;;;;;;;;;;;26.48;31.68;97668.26;107610;1266;69140;-74
2022/11/07 10:50:32;;;;;;;;;;;;;;;26.01;31.96;97665.11;107644;1270;68645;-73
2022/11/07 10:53:05;;;;;;;;;;;;;;;26.26;32.16;97665.87;107628;1270;60553;-73
2022/11/07 10:55:44;;;;;;;;;;;;;;;26.79;31.71;97662.70;107657;1269;60554;-74
2022/11/07 10:58:21;;;;;;;;;;;;;;;26.67;31.04;97659.67;107641;1269;72685;-73
2022/11/07 11:00:58;;;;;;;;;;;;;;;25.41;32.22;97661.34;107636;1270;69210;-72
2022/11/07 11:03:31;;;;;;;;;;;;;;;25.06;33.04;97657.88;107608;1270;69139;-75
2022/11/07 11:06:17;;;;;;;;;;;;;;;24.93;33.36;97660.57;107628;1270;60551;-74
2022/11/07 11:08:47;;;;;;;;;;;;;;;24.91;32.97;97654.81;107647;1270;60567;-74
2022/11/07 11:11:32;;;;;;;;;;;;;;;24.75;33.56;97652.14;107651;1269;72641;-72
2022/11/07 11:14:02;;;;;;;;;;;;;;;24.25;34.07;97655.31;107646;1265;69135;-74
2022/11/07 11:16:34;;;;;;;;;;;;;;;23.83;34.39;97657.85;107608;1268;68499;-74
2022/11/07 11:19:03;;;;;;;;;;;;;;;23.82;35.00;97659.50;107645;1270;60647;-74
2022/11/07 11:21:42;;;;;;;;;;;;;;;24.60;33.27;97653.67;107585;1266;60473;-73
2022/11/07 11:24:12;;;;;;;;;;;;;;;24.89;33.23;97647.95;107669;1265;72205;-74
2022/11/07 11:26:42;;;;;;;;;;;;;;;24.72;33.65;97652.75;107639;1269;69726;-74
2022/11/07 11:29:17;;;;;;;;;;;;;;;25.33;33.21;97650.67;107637;1269;69167;-73
2022/11/07 11:31:49;;;;;;;;;;;;;;;24.60;33.52;97652.75;107574;1269;60607;-75
2022/11/07 11:34:23;;;;;;;;;;;;;;;24.03;34.56;97651.95;107619;1270;60529;-73
2022/11/07 11:37:01;;;;;;;;;;;;;;;24.21;33.94;97652.31;107626;1266;72698;-73
2022/11/07 11:39:39;;;;;;;;;;;;;;;24.42;34.11;97651.90;107620;1265;69208;-73
2022/11/07 11:42:28;;;;;;;;;;;;;;;24.97;33.51;97646.90;107599;1270;68600;-73
2022/11/07 11:45:02;;;;;;;;;;;;;;;25.08;33.49;97643.02;107582;1267;60583;-73
2022/11/07 11:47:36;;;;;;;;;;;;;;;25.47;32.82;97642.64;107572;1270;60525;-73
2022/11/07 11:50:08;;;;;;;;;;;;;;;24.69;33.62;97643.13;107627;1267;72686;-73
2022/11/07 11:52:37;;;;;;;;;;;;;;;23.28;35.54;97648.38;107646;1269;69412;-73
2022/11/07 11:55:12;;;;;;;;;;;;;;;23.86;34.96;97649.33;107626;1261;69194;-73
2022/11/07 11:57:44;;;;;;;;;;;;;;;24.34;34.04;97639.83;107653;1265;60506;-72
2022/11/07 12:00:14;;;;;;;;;;;;;;;23.83;34.62;97643.24;107645;1267;60550;-73
2022/11/07 12:02:49;;;;;;;;;;;;;;;23.85;34.44;97640.54;107652;1266;72088;-73
2022/11/07 12:05:27;;;;;;;;;;;;;;;23.70;35.10;97640.60;107652;1267;69837;-74
2022/11/07 12:08:14;;;;;;;;;;;;;;;23.72;35.93;97642.09;107619;1266;69292;-75
2022/11/07 12:11:02;;;;;;;;;;;;;;;24.00;34.95;97636.52;107605;1266;60597;-74
2022/11/07 12:13:49;;;;;;;;;;;;;;;25.19;33.57;97633.70;107667;1268;60538;-74
2022/11/07 12:16:37;;;;;;;;;;;;;;;25.75;31.68;97633.42;107629;1270;71609;-74
2022/11/07 12:19:15;;;;;;;;;;;;;;;26.41;30.79;97630.46;107668;1270;69260;-73
2022/11/07 12:21:46;;;;;;;;;;;;;;;26.17;31.30;97630.39;107629;1269;69248;-75
2022/11/07 12:24:15;;;;;;;;;;;;;;;26.80;30.64;97631.77;107754;1269;60602;-73
2022/11/07 12:27:05;;;;;;;;;;;;;;;27.00;29.79;97631.94;107647;1265;60467;-73
2022/11/07 12:30:01;;;;;;;;;;;;;;;26.10;29.71;97632.02;107461;1269;72069;-74
2022/11/07 12:32:30;;;;;;;;;;;;;;;25.90;30.38;97629.75;107648;1269;68255;-74
2022/11/07 12:35:02;;;;;;;;;;;;;;;25.22;31.28;97626.45;107721;1267;68156;-74
2022/11/07 12:37:55;;;;;;;;;;;;;;;25.35;31.29;97629.17;107657;1269;60541;-74
2022/11/07 12:40:27;;;;;;;;;;;;;;;25.14;31.59;97628.06;107563;1270;60474;-74
2022/11/07 12:42:56;;;;;;;;;;;;;;;25.63;31.33;97629.58;107584;1270;72858;-73
2022/11/07 12:45:38;;;;;;;;;;;;;;;25.58;31.45;97626.20;107598;1265;69836;-74
2022/11/07 12:48:19;;;;;;;;;;;;;;;25.84;31.41;97622.96;107624;1269;69331;-73
2022/11/07 12:50:51;;;;;;;;;;;;;;;25.66;31.92;97620.64;107638;1265;60503;-72
2022/11/07 12:53:31;;;;;;;;;;;;;;;25.42;31.87;97617.82;107618;1270;60547;-72
2022/11/07 12:56:06;;;;;;;;;;;;;;;25.19;32.44;97616.59;107659;1265;72683;-73
2022/11/07 12:58:36;;;;;;;;;;;;;;;25.22;32.35;97614.95;107594;1267;69000;-74
2022/11/07 13:01:05;;;;;;;;;;;;;;;25.52;32.19;97612.39;107602;1267;69182;-75
2022/11/07 13:03:44;;;;;;;;;;;;;;;25.91;32.20;97607.88;107602;1265;60593;-75
2022/11/07 13:06:31;;;;;;;;;;;;;;;26.28;31.33;97608.86;107583;1266;60479;-74
2022/11/07 13:09:02;;;;;;;;;;;;;;;26.46;31.43;97606.98;107680;1269;71346;-74
2022/11/07 13:11:41;;;;;;;;;;;;;;;26.44;31.22;97607.00;107705;1266;69165;-74
2022/11/07 13:14:27;;;;;;;;;;;;;;;26.07;31.50;97604.29;107628;1267;69897;-74
2022/11/07 13:17:11;;;;;;;;;;;;;;;26.28;31.31;97605.58;107613;1267;60538;-74
2022/11/07 13:19:57;;;;;;;;;;;;;;;26.32;31.55;97608.63;107632;1269;60528;-73